Time;durP1;ratioP1;P1;durP2;ratioP2;P2;SDS_P1;SDS_P2;PMS_P1;PMS_P2;Temp;Humidity;BMP_temperature;BMP_pressure;BME280_temperature;BME280_humidity;BME280_pressure;Samples;Min_cycle;Max_cycle;Signal;HPM_P1;HPM_P2
2021/05/05 00:01:20;;;;;;;7.68;1.30;;;6.30;99.90;;;;;;5083931;28;20052;-84
2021/05/05 00:03:47;;;;;;;1.73;0.65;;;6.30;99.90;;;;;;5084557;28;20067;-84
2021/05/05 00:06:15;;;;;;;7.60;1.20;;;6.30;99.90;;;;;;5068115;28;20070;-84
2021/05/05 00:08:42;;;;;;;12.45;1.60;;;6.20;99.90;;;;;;5090994;28;20048;-84
2021/05/05 00:11:08;;;;;;;11.75;2.08;;;6.10;99.90;;;;;;5086315;28;20108;-83
2021/05/05 00:13:35;;;;;;;18.83;1.95;;;6.10;99.90;;;;;;5082560;28;20637;-83
2021/05/05 00:16:02;;;;;;;13.70;2.13;;;6.00;99.90;;;;;;5085576;28;20097;-84
2021/05/05 00:18:28;;;;;;;13.90;1.98;;;6.00;99.90;;;;;;5084851;28;20071;-84
2021/05/05 00:20:55;;;;;;;13.98;2.33;;;6.00;99.90;;;;;;5083164;28;20482;-84
2021/05/05 00:23:21;;;;;;;16.92;2.78;;;6.00;99.90;;;;;;5084236;28;20048;-84
2021/05/05 00:25:47;;;;;;;12.20;2.30;;;6.00;99.90;;;;;;5084067;28;20044;-84
2021/05/05 00:28:14;;;;;;;12.43;1.90;;;5.90;99.90;;;;;;5082399;28;20087;-85
2021/05/05 00:30:40;;;;;;;17.00;2.70;;;5.90;99.90;;;;;;5085200;28;20044;-84
2021/05/05 00:33:07;;;;;;;11.00;2.00;;;5.90;99.90;;;;;;5085221;28;20063;-85
2021/05/05 00:35:33;;;;;;;10.88;1.80;;;5.90;99.90;;;;;;5082511;28;20083;-84
2021/05/05 00:38:02;;;;;;;21.02;2.92;;;6.00;99.90;;;;;;5082353;28;20054;-85
2021/05/05 00:40:28;;;;;;;9.80;2.50;;;6.00;99.90;;;;;;5088637;28;20542;-85
2021/05/05 00:42:55;;;;;;;21.25;3.08;;;6.10;99.90;;;;;;5082209;28;20131;-84
2021/05/05 00:45:21;;;;;;;6.97;1.88;;;6.10;99.90;;;;;;5086690;28;20072;-85
2021/05/05 00:47:48;;;;;;;6.32;1.48;;;6.10;99.90;;;;;;5073451;28;20054;-84
2021/05/05 00:50:16;;;;;;;9.05;1.73;;;6.20;99.90;;;;;;5066037;28;20458;-84
2021/05/05 00:52:43;;;;;;;9.40;1.55;;;6.20;99.90;;;;;;5081878;28;20069;-84
2021/05/05 00:55:10;;;;;;;10.73;2.03;;;6.20;99.90;;;;;;5083771;28;20044;-85
2021/05/05 00:57:37;;;;;;;7.32;1.23;;;6.10;99.90;;;;;;5081902;28;20043;-84
2021/05/05 01:00:08;;;;;;;10.35;1.90;;;6.10;99.90;;;;;;5080719;28;20052;-84
2021/05/05 01:02:35;;;;;;;6.82;1.33;;;6.00;99.90;;;;;;5081976;28;20475;-84
2021/05/05 01:05:02;;;;;;;16.50;2.80;;;5.90;99.90;;;;;;5083675;28;20441;-84
2021/05/05 01:07:31;;;;;;;12.98;2.90;;;5.90;99.90;;;;;;5080820;28;20052;-86
2021/05/05 01:09:58;;;;;;;13.82;2.00;;;5.90;99.90;;;;;;5081837;28;20621;-84
2021/05/05 01:12:24;;;;;;;15.73;2.40;;;5.90;99.90;;;;;;5082985;28;20143;-84
2021/05/05 01:14:50;;;;;;;7.45;1.60;;;6.00;99.90;;;;;;5082309;28;20052;-84
2021/05/05 01:17:17;;;;;;;15.75;2.75;;;6.00;99.90;;;;;;5081576;28;20108;-84
2021/05/05 01:19:44;;;;;;;17.05;2.45;;;6.10;99.90;;;;;;5046224;28;20078;-84
2021/05/05 01:22:11;;;;;;;18.40;2.78;;;6.00;99.90;;;;;;5062903;28;20043;-84
2021/05/05 01:24:37;;;;;;;19.02;3.22;;;6.10;99.90;;;;;;5066009;28;20055;-84
2021/05/05 01:27:05;;;;;;;18.15;3.67;;;6.00;99.90;;;;;;5063218;28;20064;-84
2021/05/05 01:29:33;;;;;;;12.38;1.88;;;6.00;99.90;;;;;;5076697;28;20052;-84
2021/05/05 01:31:59;;;;;;;16.40;2.47;;;6.00;99.90;;;;;;5078527;28;20079;-84
2021/05/05 01:34:26;;;;;;;16.23;3.20;;;5.90;99.90;;;;;;5075347;28;20514;-85
2021/05/05 01:36:52;;;;;;;26.85;2.58;;;5.90;99.90;;;;;;5088512;28;20044;-84
2021/05/05 01:39:19;;;;;;;24.58;2.83;;;5.90;99.90;;;;;;5082660;28;20056;-85
2021/05/05 01:41:46;;;;;;;17.98;3.15;;;5.90;99.90;;;;;;5081381;28;20059;-84
2021/05/05 01:44:14;;;;;;;14.77;3.05;;;5.90;99.90;;;;;;5082054;28;20052;-83
2021/05/05 01:46:46;;;;;;;21.77;3.28;;;5.90;99.90;;;;;;5081089;28;20078;-86
2021/05/05 01:49:22;;;;;;;9.68;2.50;;;5.90;99.90;;;;;;5062397;28;20098;-83
2021/05/05 01:51:54;;;;;;;20.77;2.75;;;5.90;99.90;;;;;;5085444;28;20050;-83
2021/05/05 01:54:24;;;;;;;14.48;3.38;;;5.90;99.90;;;;;;5096345;28;20067;-83
2021/05/05 01:56:51;;;;;;;19.52;2.47;;;5.90;99.90;;;;;;5084317;28;20058;-84
2021/05/05 01:59:17;;;;;;;16.55;3.05;;;5.90;99.90;;;;;;5080928;28;20048;-85
2021/05/05 02:01:44;;;;;;;15.48;3.75;;;5.90;99.90;;;;;;5079979;28;20047;-84
2021/05/05 02:04:10;;;;;;;14.93;3.42;;;5.90;99.90;;;;;;5079133;28;20403;-85
2021/05/05 02:06:36;;;;;;;13.30;2.70;;;5.90;99.90;;;;;;5078899;28;20101;-85
2021/05/05 02:09:03;;;;;;;19.77;2.90;;;6.00;99.90;;;;;;5081222;28;20068;-84
2021/05/05 02:11:30;;;;;;;9.40;2.03;;;5.90;99.90;;;;;;5078645;28;20458;-85
2021/05/05 02:13:56;;;;;;;18.80;3.50;;;5.90;99.90;;;;;;5072101;28;20131;-84
2021/05/05 02:16:22;;;;;;;16.60;2.47;;;6.00;99.90;;;;;;5079650;28;20127;-85
2021/05/05 02:18:48;;;;;;;14.65;2.65;;;5.90;99.90;;;;;;5086557;28;20419;-84
2021/05/05 02:21:15;;;;;;;15.25;2.67;;;6.00;99.90;;;;;;5083938;28;20044;-85
2021/05/05 02:23:42;;;;;;;15.50;3.13;;;6.00;99.90;;;;;;5068095;28;20048;-84
2021/05/05 02:26:08;;;;;;;20.48;2.30;;;6.00;99.90;;;;;;5085557;28;20099;-84
2021/05/05 02:28:35;;;;;;;15.43;2.55;;;6.10;99.90;;;;;;5085883;28;20120;-85
2021/05/05 02:31:01;;;;;;;16.75;2.42;;;6.10;99.90;;;;;;5086160;28;20104;-85
2021/05/05 02:33:28;;;;;;;10.05;2.47;;;6.20;99.90;;;;;;5080892;28;20044;-85
2021/05/05 02:35:54;;;;;;;12.07;2.28;;;6.20;99.90;;;;;;5099086;28;20134;-85
2021/05/05 02:38:21;;;;;;;13.38;1.70;;;6.20;99.90;;;;;;5083423;28;20146;-84
2021/05/05 02:40:49;;;;;;;22.80;3.17;;;6.20;99.90;;;;;;5085985;28;20693;-85
2021/05/05 02:43:15;;;;;;;12.68;1.95;;;6.10;99.90;;;;;;5085551;28;20112;-84
2021/05/05 02:45:42;;;;;;;19.35;2.67;;;6.00;99.90;;;;;;5089256;28;20090;-85
2021/05/05 02:48:08;;;;;;;17.98;3.17;;;5.90;99.90;;;;;;5066776;28;20102;-86
2021/05/05 02:50:37;;;;;;;18.23;3.00;;;5.90;99.90;;;;;;5070250;28;20047;-85
2021/05/05 02:53:04;;;;;;;11.95;3.22;;;5.80;99.90;;;;;;5063102;28;20045;-85
2021/05/05 02:55:30;;;;;;;11.82;2.22;;;5.80;99.90;;;;;;5067362;28;20059;-85
2021/05/05 02:57:57;;;;;;;16.00;2.22;;;5.80;99.90;;;;;;5064807;28;20048;-85
2021/05/05 03:00:23;;;;;;;13.57;3.53;;;5.80;99.90;;;;;;5061221;28;20147;-85
2021/05/05 03:02:49;;;;;;;13.82;2.00;;;5.90;99.90;;;;;;5079938;28;20126;-85
2021/05/05 03:05:16;;;;;;;16.67;4.22;;;5.90;99.90;;;;;;5066981;28;20075;-85
2021/05/05 03:07:42;;;;;;;19.35;3.22;;;5.90;99.90;;;;;;5079135;28;20126;-85
2021/05/05 03:10:09;;;;;;;13.95;1.95;;;5.90;99.90;;;;;;5072142;28;20386;-85
2021/05/05 03:12:36;;;;;;;14.50;2.83;;;6.00;99.90;;;;;;5066221;28;20068;-85
2021/05/05 03:15:04;;;;;;;18.45;3.85;;;6.00;99.90;;;;;;5065469;28;20455;-85
2021/05/05 03:17:31;;;;;;;15.90;2.65;;;6.00;99.90;;;;;;5077155;28;20045;-85
2021/05/05 03:19:57;;;;;;;24.77;3.92;;;6.10;99.90;;;;;;5080696;28;20055;-85
2021/05/05 03:22:23;;;;;;;12.23;2.60;;;6.10;99.90;;;;;;5081073;28;20111;-85
2021/05/05 03:24:50;;;;;;;27.17;3.58;;;6.00;99.90;;;;;;5075118;28;20071;-85
2021/05/05 03:27:16;;;;;;;18.27;2.47;;;6.00;99.90;;;;;;5098536;28;20346;-85
2021/05/05 03:29:43;;;;;;;24.95;3.45;;;6.00;99.90;;;;;;5082832;28;20420;-85
2021/05/05 03:32:09;;;;;;;26.00;3.28;;;6.00;99.90;;;;;;5084177;28;20475;-84
2021/05/05 03:34:36;;;;;;;13.65;2.25;;;5.90;99.90;;;;;;5085676;28;20139;-85
2021/05/05 03:37:02;;;;;;;13.63;2.65;;;5.90;99.90;;;;;;5082738;28;20112;-85
2021/05/05 03:39:29;;;;;;;19.08;3.00;;;5.80;99.90;;;;;;5084259;28;20048;-85
2021/05/05 03:41:56;;;;;;;18.45;3.72;;;5.80;99.90;;;;;;5080870;28;20622;-85
2021/05/05 03:44:23;;;;;;;21.23;3.47;;;5.70;99.90;;;;;;5080693;28;20044;-85
2021/05/05 03:46:49;;;;;;;15.15;2.90;;;5.70;99.90;;;;;;5084091;28;20087;-85
2021/05/05 03:49:15;;;;;;;18.95;2.30;;;5.70;99.90;;;;;;5084604;28;20047;-85
2021/05/05 03:51:42;;;;;;;13.85;3.17;;;5.70;99.90;;;;;;5082511;28;20562;-85
2021/05/05 03:54:08;;;;;;;19.40;2.05;;;5.70;99.90;;;;;;5080972;28;20080;-85
2021/05/05 03:56:34;;;;;;;15.73;2.40;;;5.60;99.90;;;;;;5082110;28;20048;-85
2021/05/05 03:59:00;;;;;;;20.75;3.33;;;5.70;99.90;;;;;;5082930;28;20507;-85
2021/05/05 04:01:27;;;;;;;11.98;2.80;;;5.70;99.90;;;;;;5053358;28;20041;-85
2021/05/05 04:03:56;;;;;;;19.80;2.75;;;5.70;99.90;;;;;;5064356;28;20048;-85
2021/05/05 04:06:22;;;;;;;15.05;4.57;;;5.70;99.90;;;;;;5082021;28;20117;-85
2021/05/05 04:08:49;;;;;;;26.92;2.67;;;5.70;99.90;;;;;;5062513;28;20068;-85
2021/05/05 04:11:15;;;;;;;13.38;3.78;;;5.70;99.90;;;;;;5081684;28;20127;-85
2021/05/05 04:13:46;;;;;;;21.30;2.10;;;5.70;99.90;;;;;;5072629;28;20139;-85
2021/05/05 04:16:31;;;;;;;14.23;2.80;;;5.80;99.90;;;;;;5084618;28;20051;-85
2021/05/05 04:19:15;;;;;;;;;;;5.80;99.90;;;;;;5082324;28;20150;-85
2021/05/05 04:22:01;;;;;;;17.30;2.67;;;5.80;99.90;;;;;;5080815;28;20328;-85
2021/05/05 04:24:45;;;;;;;16.83;2.28;;;5.80;99.90;;;;;;5086264;28;20057;-85
2021/05/05 04:27:13;;;;;;;22.05;4.10;;;5.80;99.90;;;;;;5080401;28;20058;-85
2021/05/05 04:29:40;;;;;;;24.95;2.45;;;5.90;99.90;;;;;;5082946;28;20105;-85
2021/05/05 04:32:07;;;;;;;13.88;2.15;;;5.90;99.90;;;;;;5081348;28;20463;-85
2021/05/05 04:34:34;;;;;;;17.13;1.75;;;6.00;99.90;;;;;;5084253;28;20063;-85
2021/05/05 04:37:00;;;;;;;15.60;2.65;;;5.90;99.90;;;;;;5065876;28;20068;-85
2021/05/05 04:39:28;;;;;;;13.63;2.72;;;6.00;99.90;;;;;;5067127;28;20093;-84
2021/05/05 04:41:54;;;;;;;16.52;2.17;;;6.00;99.90;;;;;;5085697;28;20116;-86
2021/05/05 04:44:21;;;;;;;15.73;2.88;;;6.10;99.90;;;;;;5081789;28;20052;-84
2021/05/05 04:46:47;;;;;;;14.23;2.28;;;6.10;99.90;;;;;;5067301;28;20399;-84
2021/05/05 04:49:14;;;;;;;21.13;2.47;;;6.10;99.90;;;;;;5064636;28;20052;-84
2021/05/05 04:51:40;;;;;;;10.73;2.20;;;6.20;99.90;;;;;;5081004;28;20076;-85
2021/05/05 04:54:07;;;;;;;14.80;2.95;;;6.20;99.90;;;;;;5079516;28;20079;-85
2021/05/05 04:56:35;;;;;;;10.65;2.47;;;6.30;99.90;;;;;;5052865;28;20510;-86
2021/05/05 04:59:02;;;;;;;9.80;1.83;;;6.40;99.90;;;;;;5071327;28;20047;-85
2021/05/05 05:01:29;;;;;;;16.40;2.15;;;6.40;99.90;;;;;;5081498;28;20070;-85
2021/05/05 05:03:55;;;;;;;10.50;1.88;;;6.40;99.90;;;;;;5078246;28;20558;-85
2021/05/05 05:06:35;;;;;;;16.98;2.38;;;6.50;99.90;;;;;;5068235;28;20116;-85
2021/05/05 05:09:02;;;;;;;9.77;1.55;;;6.20;99.90;;;;;;5079615;28;20044;-86
2021/05/05 05:11:54;;;;;;;14.65;2.75;;;6.10;99.90;;;;;;5049592;28;20051;-85
2021/05/05 05:14:36;;;;;;;17.45;2.63;;;5.90;99.90;;;;;;5042536;28;20636;-85
2021/05/05 05:17:03;;;;;;;12.77;2.85;;;5.80;99.90;;;;;;5070004;28;20052;-85
2021/05/05 05:19:29;;;;;;;17.90;2.22;;;5.80;99.90;;;;;;5082060;28;20105;-85
2021/05/05 05:21:55;;;;;;;22.13;2.20;;;5.80;99.90;;;;;;5080271;28;20043;-85
2021/05/05 05:24:22;;;;;;;20.35;2.30;;;5.80;99.90;;;;;;5076578;28;20077;-85
2021/05/05 05:26:54;;;;;;;16.33;2.53;;;5.80;99.90;;;;;;5074056;28;20086;-85
2021/05/05 05:29:21;;;;;;;15.18;2.63;;;5.90;99.90;;;;;;5080837;28;20055;-85
2021/05/05 05:31:48;;;;;;;17.85;2.20;;;6.00;99.90;;;;;;5064851;28;20112;-85
2021/05/05 05:34:15;;;;;;;14.55;2.47;;;6.20;99.90;;;;;;5081538;28;20056;-85
2021/05/05 05:36:41;;;;;;;14.93;2.53;;;6.30;99.90;;;;;;5077708;28;20773;-85
2021/05/05 05:39:08;;;;;;;11.68;2.22;;;6.40;99.90;;;;;;5065811;28;20475;-85
2021/05/05 05:41:35;;;;;;;14.27;2.58;;;6.40;99.90;;;;;;5077733;28;20108;-85
2021/05/05 05:44:04;;;;;;;21.50;3.35;;;6.40;99.90;;;;;;5080767;28;20068;-85
2021/05/05 05:46:32;;;;;;;20.42;3.67;;;6.50;99.90;;;;;;5047519;28;20066;-85
2021/05/05 05:48:58;;;;;;;14.82;1.92;;;6.50;99.90;;;;;;5077097;28;20055;-85
2021/05/05 05:51:25;;;;;;;24.88;2.88;;;6.50;99.90;;;;;;5077954;28;20071;-85
2021/05/05 05:53:51;;;;;;;14.13;2.58;;;6.70;99.90;;;;;;5076828;28;20444;-85
2021/05/05 05:56:20;;;;;;;19.27;3.10;;;6.90;99.90;;;;;;5066403;28;20139;-85
2021/05/05 05:58:46;;;;;;;10.45;1.85;;;7.10;99.90;;;;;;5077218;28;20139;-85
2021/05/05 06:01:12;;;;;;;11.45;2.75;;;7.10;99.90;;;;;;5076612;28;20051;-85
2021/05/05 06:03:38;;;;;;;14.65;1.98;;;7.10;99.90;;;;;;5078694;28;20047;-85
2021/05/05 06:06:05;;;;;;;14.32;1.73;;;7.10;99.90;;;;;;5080353;28;20059;-85
2021/05/05 06:08:32;;;;;;;9.35;2.05;;;7.20;99.90;;;;;;5080648;28;20138;-85
2021/05/05 06:11:08;;;;;;;8.57;1.33;;;7.20;99.90;;;;;;5072020;28;20507;-84
2021/05/05 06:13:35;;;;;;;5.22;1.00;;;7.40;99.90;;;;;;5080916;28;20076;-84
2021/05/05 06:16:01;;;;;;;8.60;1.25;;;7.60;99.90;;;;;;5074012;28;20052;-84
2021/05/05 06:18:27;;;;;;;8.85;2.08;;;7.70;99.90;;;;;;5080948;28;20047;-85
2021/05/05 06:20:54;;;;;;;4.05;0.90;;;7.80;99.90;;;;;;5081790;28;20048;-84
2021/05/05 06:23:20;;;;;;;8.32;1.30;;;7.90;99.90;;;;;;5086225;28;20059;-85
2021/05/05 06:25:46;;;;;;;5.60;0.95;;;7.90;99.90;;;;;;5081525;28;20447;-85
2021/05/05 06:28:12;;;;;;;9.07;1.30;;;7.90;99.90;;;;;;5069587;28;20481;-85
2021/05/05 06:30:39;;;;;;;9.55;2.55;;;7.90;99.90;;;;;;5080400;28;20056;-85
2021/05/05 06:33:07;;;;;;;6.57;0.95;;;7.80;99.90;;;;;;5079129;28;20109;-85
2021/05/05 06:35:34;;;;;;;8.43;2.10;;;7.70;99.90;;;;;;5051272;28;20069;-86
2021/05/05 06:38:00;;;;;;;7.68;1.23;;;7.60;99.90;;;;;;5085465;28;20555;-86
2021/05/05 06:40:27;;;;;;;6.30;1.13;;;7.70;99.90;;;;;;5069889;28;20076;-87
2021/05/05 06:42:53;;;;;;;5.47;1.25;;;7.80;99.90;;;;;;5083980;28;20480;-81
2021/05/05 06:45:20;;;;;;;7.28;1.08;;;7.90;99.90;;;;;;5061078;28;20125;-85
2021/05/05 06:47:46;;;;;;;10.60;1.20;;;8.00;99.90;;;;;;5079799;28;20044;-83
2021/05/05 06:50:13;;;;;;;13.48;1.35;;;8.10;99.90;;;;;;5071039;28;20049;-84
2021/05/05 06:52:40;;;;;;;7.80;1.17;;;8.30;99.90;;;;;;5068328;28;20525;-83
2021/05/05 06:55:07;;;;;;;5.93;0.77;;;8.50;99.90;;;;;;5078906;28;20071;-83
2021/05/05 06:57:36;;;;;;;8.85;0.98;;;8.70;99.90;;;;;;5068011;28;20116;-84
2021/05/05 07:00:08;;;;;;;11.90;1.48;;;8.80;99.90;;;;;;5062641;28;20135;-86
2021/05/05 07:02:34;;;;;;;8.38;1.50;;;9.00;99.90;;;;;;5071496;28;20067;-83
2021/05/05 07:05:01;;;;;;;9.38;1.02;;;9.00;99.90;;;;;;5083706;28;20040;-84
2021/05/05 07:07:30;;;;;;;13.00;1.67;;;9.00;99.90;;;;;;5082517;28;20495;-84
2021/05/05 07:09:56;;;;;;;10.95;1.48;;;9.00;99.90;;;;;;5083535;28;20044;-86
2021/05/05 07:12:23;;;;;;;6.30;1.33;;;9.00;99.90;;;;;;5071384;28;20056;-85
2021/05/05 07:14:49;;;;;;;10.93;1.60;;;9.00;99.90;;;;;;5080963;28;20098;-84
2021/05/05 07:17:16;;;;;;;9.25;1.88;;;8.90;99.90;;;;;;5054090;28;20153;-85
2021/05/05 07:19:44;;;;;;;15.25;2.70;;;8.80;99.90;;;;;;5077863;28;20380;-85
2021/05/05 07:22:11;;;;;;;12.75;2.30;;;8.80;99.90;;;;;;5071736;28;20045;-85
2021/05/05 07:24:39;;;;;;;12.43;2.20;;;8.70;99.90;;;;;;5043713;28;20519;-86
2021/05/05 07:27:05;;;;;;;8.60;2.05;;;8.70;99.90;;;;;;5081034;28;20083;-85
2021/05/05 07:29:32;;;;;;;15.35;3.50;;;8.70;99.90;;;;;;5075113;28;20051;-84
2021/05/05 07:32:00;;;;;;;19.15;2.65;;;8.70;99.90;;;;;;5070516;28;20052;-85
2021/05/05 07:34:27;;;;;;;11.73;2.08;;;8.60;99.90;;;;;;5067264;28;20058;-85
2021/05/05 07:37:12;;;;;;;14.27;2.15;;;8.60;99.90;;;;;;5077858;28;20068;-85
2021/05/05 07:43:09;;;;;;;13.27;1.80;;;8.80;99.90;;;;;;5074100;28;20103;-84
2021/05/05 07:50:49;;;;;;;14.50;2.10;;;8.90;99.90;;;;;;5047610;28;20074;-85
2021/05/05 07:53:15;;;;;;;14.25;2.90;;;8.90;99.90;;;;;;5073997;28;20122;-86
2021/05/05 07:55:49;;;;;;;11.45;1.90;;;8.90;99.90;;;;;;5067078;28;20081;-85
2021/05/05 07:58:15;;;;;;;12.10;2.20;;;9.00;99.90;;;;;;5070986;28;20060;-85
2021/05/05 08:00:41;;;;;;;10.40;1.70;;;9.20;99.90;;;;;;5076575;28;20042;-85
2021/05/05 08:03:07;;;;;;;9.77;1.58;;;9.30;99.90;;;;;;5072141;28;20044;-85
2021/05/05 08:05:34;;;;;;;12.63;2.22;;;9.50;99.90;;;;;;5079278;28;20052;-86
2021/05/05 08:08:00;;;;;;;14.52;2.63;;;9.70;99.90;;;;;;5050820;28;20070;-86
2021/05/05 08:10:29;;;;;;;5.90;1.65;;;9.80;99.90;;;;;;5068808;28;20039;-86
2021/05/05 08:13:12;;;;;;;17.02;2.42;;;9.80;99.90;;;;;;5075244;28;20052;-85
2021/05/05 08:15:38;;;;;;;12.82;2.35;;;9.60;99.90;;;;;;5062340;28;20102;-85
2021/05/05 08:18:06;;;;;;;9.55;1.90;;;9.40;99.90;;;;;;5058566;28;20056;-85
2021/05/05 08:20:36;;;;;;;6.78;1.35;;;9.20;99.90;;;;;;5061129;28;20051;-85
2021/05/05 08:23:06;;;;;;;6.00;1.30;;;9.20;99.90;;;;;;5086618;28;20043;-82
2021/05/05 08:25:32;;;;;;;8.93;1.23;;;9.30;99.90;;;;;;5078107;28;20080;-83
2021/05/05 08:28:00;;;;;;;12.93;1.88;;;9.60;99.90;;;;;;5077542;28;20044;-83
2021/05/05 08:30:27;;;;;;;9.25;1.40;;;9.70;99.90;;;;;;5082300;28;20083;-82
2021/05/05 08:32:53;;;;;;;9.05;1.60;;;9.80;99.90;;;;;;5077478;28;20468;-82
2021/05/05 08:35:24;;;;;;;12.18;2.08;;;10.00;99.90;;;;;;5077747;28;20522;-81
2021/05/05 08:37:52;;;;;;;13.20;2.10;;;10.20;99.90;;;;;;5075706;28;20123;-81
2021/05/05 08:40:20;;;;;;;14.93;3.15;;;10.30;99.90;;;;;;5069797;28;20182;-81
2021/05/05 08:42:46;;;;;;;15.00;2.60;;;10.40;99.90;;;;;;5081152;28;20138;-82
2021/05/05 08:45:18;;;;;;;13.35;2.35;;;10.70;99.90;;;;;;5077035;28;20052;-82
2021/05/05 08:47:47;;;;;;;12.07;1.88;;;11.00;99.90;;;;;;5090972;28;20067;-81
2021/05/05 08:50:16;;;;;;;13.57;2.65;;;11.00;99.90;;;;;;5081646;28;20084;-81
2021/05/05 08:52:44;;;;;;;22.23;3.28;;;10.90;99.90;;;;;;5085151;28;20059;-81
2021/05/05 08:55:15;;;;;;;5.50;0.80;;;10.90;99.90;;;;;;5065927;28;20055;-81
2021/05/05 08:57:42;;;;;;;4.93;0.93;;;10.90;99.90;;;;;;5078660;28;20121;-81
2021/05/05 09:00:11;;;;;;;5.85;0.90;;;10.60;99.90;;;;;;5082920;28;20143;-81
2021/05/05 09:02:37;;;;;;;9.60;1.23;;;10.20;99.90;;;;;;5093437;28;20072;-81
2021/05/05 09:05:21;;;;;;;;;;;9.90;99.90;;;;;;5074266;28;20072;-82
2021/05/05 09:07:47;;;;;;;21.33;3.28;;;9.50;99.90;;;;;;5091786;28;19978;-82
2021/05/05 09:10:22;;;;;;;15.95;2.03;;;9.20;99.90;;;;;;5073481;28;20043;-81
2021/05/05 09:12:53;;;;;;;14.75;2.22;;;8.90;99.90;;;;;;5082915;28;20052;-82
2021/05/05 09:15:30;;;;;;;14.80;2.65;;;8.80;99.90;;;;;;5070811;28;20148;-80
2021/05/05 09:17:58;;;;;;;13.68;1.70;;;8.70;99.90;;;;;;5076926;28;20052;-82
2021/05/05 09:20:31;;;;;;;8.50;1.00;;;8.70;99.90;;;;;;5076900;28;20131;-83
2021/05/05 09:23:06;;;;;;;6.53;1.33;;;8.20;99.90;;;;;;5074579;28;20060;-83
2021/05/05 09:25:33;;;;;;;3.88;0.70;;;7.80;99.90;;;;;;5044930;28;20048;-82
2021/05/05 09:28:14;;;;;;;3.28;0.75;;;7.70;99.90;;;;;;5083724;28;20048;-84
2021/05/05 09:30:48;;;;;;;8.95;1.73;;;7.90;99.90;;;;;;5087032;28;20043;-83
2021/05/05 09:33:26;;;;;;;9.13;1.88;;;8.10;99.90;;;;;;5081050;28;20472;-85
2021/05/05 09:35:57;;;;;;;16.27;2.22;;;8.20;99.90;;;;;;5082426;28;20097;-85
2021/05/05 09:38:50;;;;;;;8.38;1.67;;;8.20;99.90;;;;;;5085480;28;20059;-84
2021/05/05 09:41:28;;;;;;;17.60;2.03;;;8.20;99.90;;;;;;5077772;28;20048;-83
2021/05/05 09:44:06;;;;;;;12.82;2.13;;;8.40;99.90;;;;;;5089083;28;20051;-84
2021/05/05 09:46:46;;;;;;;20.27;3.65;;;8.70;99.90;;;;;;5069030;28;20040;-82
2021/05/05 09:49:32;;;;;;;23.48;3.60;;;8.90;99.90;;;;;;5063284;28;20044;-84
2021/05/05 09:52:06;;;;;;;15.52;2.22;;;9.20;99.90;;;;;;5077439;28;20048;-83
2021/05/05 09:54:33;;;;;;;;;;;9.50;99.90;;;;;;5073547;28;20131;-83
2021/05/05 09:57:24;;;;;;;10.05;2.20;;;9.70;99.90;;;;;;5082969;28;19927;-83
2021/05/05 10:00:08;;;;;;;7.53;1.58;;;9.60;99.90;;;;;;5049872;28;20139;-84
2021/05/05 10:02:49;;;;;;;11.50;1.95;;;9.20;99.90;;;;;;5074844;28;20051;-83
2021/05/05 10:05:18;;;;;;;13.15;2.20;;;8.80;99.90;;;;;;5077564;28;20060;-84
2021/05/05 10:08:00;;;;;;;9.57;1.90;;;8.50;99.90;;;;;;5082408;28;20133;-83
2021/05/05 10:10:32;;;;;;;15.30;2.08;;;8.40;99.90;;;;;;5086337;28;20052;-81
2021/05/05 10:13:00;;;;;;;22.00;4.20;;;8.60;99.90;;;;;;5077353;28;20056;-84
2021/05/05 10:15:27;;;;;;;19.95;3.03;;;9.10;99.90;;;;;;5090356;28;20057;-85
2021/05/05 10:17:58;;;;;;;13.75;3.67;;;9.40;99.90;;;;;;5078281;28;20103;-85
2021/05/05 10:20:27;;;;;;;21.60;3.55;;;9.40;99.90;;;;;;5077087;28;20052;-85
2021/05/05 10:23:00;;;;;;;20.02;2.97;;;9.30;99.90;;;;;;5093569;28;20074;-84
2021/05/05 10:25:27;;;;;;;13.02;1.90;;;9.50;99.90;;;;;;5084097;28;20108;-84
2021/05/05 10:27:54;;;;;;;7.90;1.50;;;9.80;99.90;;;;;;5069320;28;20055;-84
2021/05/05 10:30:34;;;;;;;9.55;2.55;;;10.20;99.90;;;;;;5065177;28;20134;-84
2021/05/05 10:33:17;;;;;;;12.27;1.52;;;10.30;99.90;;;;;;5068487;28;20044;-84
2021/05/05 10:35:45;;;;;;;8.75;1.30;;;10.30;99.90;;;;;;5079781;28;20044;-83
2021/05/05 10:38:34;;;;;;;3.70;1.00;;;10.10;99.90;;;;;;5087892;28;20045;-83
2021/05/05 10:41:12;;;;;;;8.30;1.85;;;9.90;99.90;;;;;;5088304;28;20445;-84
2021/05/05 10:43:46;;;;;;;12.40;1.63;;;10.10;99.90;;;;;;5105447;27;20060;-85
2021/05/05 10:46:26;;;;;;;11.90;2.03;;;10.40;99.90;;;;;;5075122;28;20637;-83
2021/05/05 10:49:06;;;;;;;14.05;2.10;;;10.60;99.90;;;;;;5035003;28;20056;-84
2021/05/05 10:51:44;;;;;;;10.43;2.55;;;10.70;99.90;;;;;;5069532;28;20047;-83
2021/05/05 10:54:14;;;;;;;13.80;2.55;;;10.90;99.90;;;;;;5062114;28;20476;-84
2021/05/05 10:57:14;;;;;;;21.80;2.70;;;11.00;99.90;;;;;;5015337;28;20106;-84
2021/05/05 10:59:58;;;;;;;14.95;2.03;;;11.10;99.90;;;;;;4929780;28;20057;-84
2021/05/05 11:03:28;;;;;;;19.67;3.17;;;10.90;99.90;;;;;;4987576;28;20053;-84
2021/05/05 11:06:47;;;;;;;;;;;;;;;;;;;;;
2021/05/05 11:09:58;;;;;;;14.98;2.20;;;10.00;99.90;;;;;;4943318;28;20061;-84
2021/05/05 11:12:40;;;;;;;13.65;2.10;;;9.60;99.90;;;;;;4951416;28;20065;-83
2021/05/05 11:15:10;;;;;;;13.70;2.30;;;9.40;99.90;;;;;;4914821;28;20203;-85
2021/05/05 11:17:40;;;;;;;13.50;2.53;;;9.40;99.90;;;;;;4949567;28;20054;-85
2021/05/05 11:20:42;;;;;;;15.88;2.53;;;9.70;99.90;;;;;;5003776;28;20110;-83
2021/05/05 11:23:19;;;;;;;;;;;;;;;;;;;;;
2021/05/05 11:25:45;;;;;;;23.05;3.53;;;10.60;99.90;;;;;;5032904;28;20049;-83
2021/05/05 11:28:12;;;;;;;16.30;3.42;;;11.00;99.90;;;;;;5011751;28;20084;-83
2021/05/05 11:30:47;;;;;;;24.90;3.92;;;11.40;99.90;;;;;;4989583;28;20072;-84
2021/05/05 11:33:20;;;;;;;22.83;3.40;;;11.80;99.90;;;;;;5021359;28;20067;-83
2021/05/05 11:35:49;;;;;;;17.45;2.72;;;12.00;99.90;;;;;;5037491;28;20052;-85
2021/05/05 11:38:19;;;;;;;17.38;3.10;;;12.00;99.90;;;;;;5039122;28;20053;-84
2021/05/05 11:40:57;;;;;;;23.75;3.40;;;12.20;99.90;;;;;;5037627;28;20103;-83
2021/05/05 11:43:26;;;;;;;15.23;4.72;;;12.30;99.90;;;;;;5049652;28;20049;-83
2021/05/05 11:45:56;;;;;;;13.85;2.42;;;12.40;99.90;;;;;;5051884;28;20049;-83
2021/05/05 11:48:36;;;;;;;8.43;2.65;;;12.20;99.90;;;;;;5045763;28;20116;-85
2021/05/05 11:51:23;;;;;;;15.02;2.50;;;12.00;99.90;;;;;;5041658;28;20588;-84
2021/05/05 11:53:50;;;;;;;14.32;2.40;;;11.90;99.90;;;;;;5045898;28;20049;-84
2021/05/05 11:56:18;;;;;;;18.15;2.92;;;12.20;99.90;;;;;;5034463;28;20108;-85
2021/05/05 11:58:58;;;;;;;16.45;3.28;;;12.70;99.90;;;;;;5044384;28;20095;-85
2021/05/05 12:01:51;;;;;;;10.80;2.10;;;13.20;99.90;;;;;;5041166;28;20079;-85
2021/05/05 12:04:22;;;;;;;14.77;2.33;;;13.90;99.90;;;;;;5030685;28;20112;-85
2021/05/05 12:06:54;;;;;;;16.83;2.35;;;14.60;99.90;;;;;;5039334;28;20068;-85
2021/05/05 12:09:26;;;;;;;12.95;2.45;;;14.80;93.90;;;;;;5028518;28;20455;-84
2021/05/05 12:12:29;;;;;;;13.68;2.67;;;14.60;93.80;;;;;;5027328;28;20046;-84
2021/05/05 12:15:05;;;;;;;16.02;1.98;;;14.30;91.50;;;;;;5014949;28;20112;-84
2021/05/05 12:17:44;;;;;;;13.23;2.22;;;14.10;91.70;;;;;;5018139;28;20076;-85
2021/05/05 12:20:12;;;;;;;14.55;3.25;;;14.50;93.50;;;;;;5028854;28;20080;-85
2021/05/05 12:23:00;;;;;;;11.50;2.40;;;15.20;91.30;;;;;;5043203;28;20160;-85
2021/05/05 12:25:32;;;;;;;13.98;2.00;;;15.70;84.50;;;;;;5039857;28;20136;-83
2021/05/05 12:28:15;;;;;;;14.25;2.30;;;16.10;85.30;;;;;;5040757;28;20050;-84
2021/05/05 12:30:45;;;;;;;14.40;2.00;;;16.70;79.20;;;;;;5031317;28;20113;-84
2021/05/05 12:33:13;;;;;;;19.48;3.13;;;17.40;73.90;;;;;;5023547;28;20104;-83
2021/05/05 12:35:42;;;;;;;12.98;2.97;;;18.10;71.50;;;;;;5006951;28;20049;-84
2021/05/05 12:38:16;;;;;;;11.30;1.50;;;18.60;68.60;;;;;;5010965;28;20072;-84
2021/05/05 12:40:44;;;;;;;9.40;1.33;;;18.00;68.10;;;;;;5038069;28;21287;-84
2021/05/05 12:43:20;;;;;;;5.90;1.50;;;16.50;74.90;;;;;;5041681;28;20116;-83
2021/05/05 12:45:49;;;;;;;14.10;1.60;;;15.00;84.50;;;;;;5038601;28;20079;-83
2021/05/05 12:48:38;;;;;;;8.27;2.08;;;13.50;90.70;;;;;;5019189;28;20136;-83
2021/05/05 12:51:16;;;;;;;6.82;1.67;;;12.10;97.60;;;;;;5020957;28;20059;-83
2021/05/05 12:54:02;;;;;;;6.68;1.20;;;10.90;99.90;;;;;;5021880;28;20041;-83
2021/05/05 12:56:46;;;;;;;9.63;1.65;;;9.90;99.90;;;;;;5024546;28;20542;-83
2021/05/05 12:59:14;;;;;;;;;;;9.90;99.90;;;;;;5056084;28;20037;-83
2021/05/05 13:01:40;;;;;;;9.30;1.63;;;10.50;99.90;;;;;;5050227;28;19967;-83
2021/05/05 13:04:07;;;;;;;12.05;2.25;;;11.10;99.90;;;;;;5051222;28;20195;-83
2021/05/05 13:06:41;;;;;;;14.73;2.67;;;12.10;99.90;;;;;;5047720;28;20051;-83
2021/05/05 13:09:24;;;;;;;12.18;2.40;;;13.60;99.90;;;;;;5073219;28;20131;-83
2021/05/05 13:12:09;;;;;;;13.68;2.53;;;14.80;99.90;;;;;;5059489;28;20512;-83
2021/05/05 13:17:53;;;;;;;10.18;2.33;;;15.90;95.20;;;;;;5062183;28;20075;-83
2021/05/05 13:26:23;;;;;;;21.38;3.03;;;14.90;90.80;;;;;;5064543;28;20102;-82